KAFO/AFO METAR and TAF weather

Enter ICAO airport designator
Station Type Date Time Source
KAFO METAR 2022/05/24 12:15 UTC NOAA

KAFO 241215Z AUTO 00000KT 10SM OVC075 M01/M03 A3006 RMK AO2


Station Type Date Time Source
KAFO Decoded METAR 2022/05/24 12:15 UTC NOAA

Station name not available
May 24, 2022 - 08:15 AM EDT / 2022.05.24 1215 UTC
Wind: Calm:0
Visibility: 10 mile(s):0
Sky conditions: overcast
Temperature: 30 F (-1 C)
Dew Point: 26 F (-3 C)
Relative Humidity: 86%
Pressure (altimeter): 30.06 in. Hg (1017 hPa)
ob: KAFO 241215Z AUTO 00000KT 10SM OVC075 M01/M03 A3006 RMK AO2
cycle: 12

Station Type Date Time Source
KAFO TAF UTC NOAA

Error!

Example: see airport list